Terminal Aerodrome Forecast
Issued by NWS

Home | Current Version | Previous Version | Text Only | Print | Product List | Glossary On
Versions: 1 2 3 4 5 6 7 8 9 10 11 12 13 14 15 16 17 18 19 20 21 22
000
FTUS41 KOKX 031400 AAA
TAFSWF
TAF AMD
KSWF 031431Z 0315/0418 VRB03KT P6SM BKN250
     FM031700 17006KT P6SM SCT020 BKN120
     FM032100 16008KT 4SM -SN BKN020 OVC060
     FM040000 17009KT 2SM -SNPL OVC009
     FM040300 19009KT 1SM FZRAPL OVC005
     FM040600 23008KT 1SM -FZRA OVC004 WS020/24045KT
     FM040800 25007KT 5SM BR SCT008 BKN025 WS020/24050KT
     FM041100 27007KT 6SM BR SCT030 OVC080 PROB30 0412/0418 -RA
      AMD NOT SKED=

USA.gov is the U.S. government's official web portal to all federal, state and local government web resources and services.